• Join FlightAware (Why Join?)
  • Login
  • US Flag 
02:11AM EDT


 

Airport Tracker/Info


-or-


 

Live Flight TrackerFlight Track Log ✈ UAL335 ✈ 21-Apr-2013 ✈ KDEN - KTPA

Flight Track Log - Related Links

Times and Time Zones

All times are in EDT time to prevent confusion due to time zone crossing. See the UAL335 flight status page for this flight to view local times or setup timezone preferences in your user account.

Time Position Orientation Groundspeed Altitude Reporting Facility
EDT Latitude Longitude Course Direction KTS MPH feet Rate Location/Type
12:19PM 39.8764 -104.5933 110° East 201 231 6,700  Level Denver Center
12:21PM 39.8506 -104.5128 113° Southeast 236 272 8,300 1,740 Climbing Denver Center
12:22PM 39.6848 -104.2100 108° East  Level Estimated
12:22PM 39.8203 -104.4233 114° Southeast 271 312 10,400  Level Denver Center
12:23PM 39.6255 -104.0561 108° East  Level Estimated
12:23PM 39.7897 -104.3339 114° Southeast 313 360 11,400  Level Denver Center
12:24PM 39.5659 -103.9025 116° Southeast  Level Estimated
12:24PM 39.7392 -104.1908 115° Southeast 353 406 14,000  Level Denver Center
12:25PM 39.5062 -103.7491 110° East  Level Estimated
12:25PM 39.6972 -104.0667 114° Southeast 375 432 16,000  Level Denver Center
12:26PM 39.6458 -103.9297 116° Southeast 392 451 18,000 1,800 Climbing Denver Center
12:27PM 39.5928 -103.8000 118° Southeast 405 466 19,800 1,680 Climbing Denver Center
12:28PM 39.5542 -103.6489 108° East 403 464 21,500 1,500 Climbing Denver Center
12:29PM 39.5142 -103.4997 109° East 429 494 22,900 1,260 Climbing Denver Center
12:30PM 39.4742 -103.3472 109° East 442 509 24,200 1,200 Climbing Denver Center
12:31PM 39.4317 -103.1897 109° East 459 528 25,500 1,140 Climbing Denver Center
12:32PM 39.3900 -103.0317 109° East 461 531 26,600 900 Climbing Denver Center
12:33PM 39.3464 -102.8681 109° East 474 545 27,400 900 Climbing Denver Center
12:34PM 39.2953 -102.6814 109° East 485 558 28,500 1,020 Climbing Denver Center
12:35PM 39.2525 -102.5197 109° East 494 568 29,600 1,140 Climbing Denver Center
12:36PM 39.2003 -102.3322 110° East 498 573 30,900 1,080 Climbing Denver Center
12:37PM 39.1558 -102.1733 110° East 494 568 31,900 960 Climbing Denver Center
12:38PM 39.0833 -101.9989 118° Southeast 500 575 33,000 960 Climbing Denver Center
12:39PM 38.9950 -101.8753 133° Southeast 491 565 34,000 780 Climbing Denver Center
12:40PM 38.8903 -101.7333 133° Southeast 490 564 34,700 420 Climbing Denver Center
12:41PM 38.8017 -101.6094 133° Southeast 492 566 35,000 120 Climbing Denver Center
12:42PM 38.6808 -101.4483 134° Southeast 490 564 35,000  Level Denver Center
12:43PM 38.5897 -101.3261 134° Southeast 494 568 35,000  Level Denver Center
12:45PM 38.4833 -101.1844 134° Southeast 495 570 35,000  Level Denver Center
12:46PM 38.3931 -101.0617 133° Southeast 495 570 35,000  Level Denver Center
12:47PM 38.2867 -100.9200 134° Southeast 494 568 35,000  Level Denver Center
12:48PM 38.1953 -100.7992 134° Southeast 493 567 35,000  Level Denver Center
12:49PM 38.1036 -100.6794 134° Southeast 491 565 35,000  Level Denver Center
12:49PM 38.0417 -100.5986 134° Southeast 493 567 35,000  Level Kansas City Center
12:50PM 37.9497 -100.4767 134° Southeast 494 568 35,000  Level Kansas City Center
12:51PM 37.8564 -100.3556 134° Southeast 496 571 35,000  Level Kansas City Center
12:52PM 37.7475 -100.2150 134° Southeast 498 573 35,000  Level Kansas City Center
12:53PM 37.6544 -100.0931 134° Southeast 500 575 35,000  Level Kansas City Center
12:54PM 37.5442 -99.9517 135° Southeast 504 580 35,000  Level Kansas City Center
12:55PM 37.4492 -99.8306 135° Southeast 506 582 35,000  Level Kansas City Center
12:56PM 37.3400 -99.6900 134° Southeast 503 579 35,000  Level Kansas City Center
12:57PM 37.2458 -99.5711 135° Southeast 502 578 35,000  Level Kansas City Center
12:58PM 37.1517 -99.4522 135° Southeast 501 577 35,000  Level Kansas City Center
12:59PM 37.0378 -99.3089 135° Southeast 498 573 35,000  Level Kansas City Center
01:01PM 36.9400 -99.1858 135° Southeast 496 571 35,000  Level Kansas City Center
01:02PM 36.8419 -99.0628 135° Southeast 497 572 35,000 -60 Level Kansas City Center
01:03PM 36.7447 -98.9414 135° Southeast 493 567 34,900  Descending Kansas City Center
01:04PM 36.6456 -98.8203 136° Southeast 493 567 35,000  Climbing Kansas City Center
01:05PM 36.5475 -98.6978 135° Southeast 495 570 35,000  Level Kansas City Center
01:06PM 36.4503 -98.5772 135° Southeast 491 565 35,000  Level Kansas City Center
01:07PM 36.3708 -98.4794 135° Southeast 495 570 35,000  Level Kansas City Center
01:08PM 36.2522 -98.3336 135° Southeast 496 571 35,000  Level Kansas City Center
01:09PM 36.1531 -98.2131 136° Southeast 496 571 35,000  Level Kansas City Center
01:10PM 36.0533 -98.0931 136° Southeast 496 571 35,000  Level Kansas City Center
01:11PM 35.9525 -97.9706 135° Southeast 495 570 35,000  Level Kansas City Center
01:12PM 35.8539 -97.8511 136° Southeast 497 572 35,000  Level Kansas City Center
01:12PM 35.7728 -97.7564 137° Southeast 498 573 35,000  Level Fort Worth Center
01:13PM 35.6731 -97.6358 136° Southeast 498 573 35,000  Level Fort Worth Center
01:14PM 35.5731 -97.5183 136° Southeast 498 573 35,000  Level Fort Worth Center
01:15PM 35.4958 -97.4236 135° Southeast 498 573 35,000  Level Fort Worth Center
01:16PM 35.3750 -97.2811 136° Southeast 503 579 35,000  Level Fort Worth Center
01:17PM 35.2831 -97.1744 137° Southeast 498 573 35,000 -60 Level Fort Worth Center
01:18PM 35.1825 -97.0581 137° Southeast 503 579 34,900 -60 Descending Fort Worth Center
01:19PM 35.0864 -96.9442 136° Southeast 498 573 34,900  Level Fort Worth Center
01:20PM 34.9856 -96.8281 137° Southeast 498 573 35,000  Climbing Fort Worth Center
01:21PM 34.8869 -96.7125 136° Southeast 498 573 35,000  Level Fort Worth Center
01:22PM 34.7861 -96.5969 137° Southeast 498 573 35,000  Level Fort Worth Center
01:23PM 34.6853 -96.4817 137° Southeast 498 573 35,000  Level Fort Worth Center
01:24PM 34.5842 -96.3642 136° Southeast 498 573 35,000  Level Fort Worth Center
01:25PM 34.4831 -96.2494 137° Southeast 503 579 35,000  Level Fort Worth Center
01:26PM 34.3839 -96.1300 135° Southeast 503 579 35,000  Level Fort Worth Center
01:27PM 34.2947 -95.9983 129° Southeast 503 579 35,000  Level Fort Worth Center
01:28PM 34.2097 -95.8639 127° Southeast 503 579 35,000  Level Fort Worth Center
01:29PM 34.1244 -95.7300 128° Southeast 503 579 35,000  Level Fort Worth Center
01:30PM 34.0347 -95.5789 126° Southeast 508 585 35,000  Level Fort Worth Center
01:31PM 33.9450 -95.4456 129° Southeast 508 585 35,000  Level Fort Worth Center
01:32PM 33.8617 -95.3147 127° Southeast 508 585 35,000  Level Fort Worth Center
01:33PM 33.7717 -95.1822 129° Southeast 508 585 35,000  Level Fort Worth Center
01:34PM 33.6878 -95.0469 127° Southeast 508 585 35,000  Level Fort Worth Center
01:35PM 33.6017 -94.9147 128° Southeast 508 585 35,000 -60 Level Fort Worth Center
01:36PM 33.5178 -94.7850 128° Southeast 508 585 34,900 -60 Descending Fort Worth Center
01:37PM 33.4314 -94.6506 128° Southeast 508 585 34,900  Level Fort Worth Center
01:38PM 33.3428 -94.5192 129° Southeast 513 590 35,000  Climbing Fort Worth Center
01:39PM 33.2542 -94.3853 128° Southeast 513 590 35,000  Level Fort Worth Center
01:40PM 33.1531 -94.2647 135° Southeast 508 585 35,000  Level Fort Worth Center
01:41PM 33.0519 -94.1519 137° Southeast 508 585 35,000  Level Fort Worth Center
01:42PM 32.9486 -94.0319 136° Southeast 508 585 35,000  Level Fort Worth Center
01:43PM 32.8475 -93.9169 136° Southeast 508 585 35,000  Level Fort Worth Center
01:44PM 32.7481 -93.8000 135° Southeast 508 585 35,000  Level Fort Worth Center
01:45PM 32.6489 -93.6856 136° Southeast 508 585 35,000  Level Fort Worth Center
01:46PM 32.5472 -93.5689 136° Southeast 503 579 35,000 -60 Level Fort Worth Center
01:49PM 32.3356 -93.2603 129° Southeast 509 586 34,900  Descending Houston Center
01:50PM 32.2483 -93.1272 128° Southeast 510 587 35,000  Climbing Houston Center
01:51PM 32.1619 -92.9947 128° Southeast 510 587 35,000  Level Houston Center
01:52PM 32.0681 -92.8519 128° Southeast 509 586 35,000 -60 Level Houston Center
01:53PM 31.9814 -92.7239 129° Southeast 502 578 34,900 -60 Descending Houston Center
01:54PM 31.8947 -92.5906 127° Southeast 508 585 34,900  Level Houston Center
01:55PM 31.8086 -92.4614 128° Southeast 505 581 34,900  Level Houston Center
01:56PM 31.7228 -92.3300 128° Southeast 505 581 34,900  Level Houston Center
01:57PM 31.6167 -92.1739 129° Southeast 507 583 34,900  Level Houston Center
01:58PM 31.5292 -92.0419 128° Southeast 510 587 34,900  Level Houston Center
01:59PM 31.4556 -91.9044 122° Southeast 520 598 35,000  Climbing Houston Center
02:00PM 31.3872 -91.7550 118° Southeast 520 598 35,000  Level Houston Center
02:01PM 31.3033 -91.5772 119° Southeast 520 598 35,000  Level Houston Center
02:02PM 31.2347 -91.4289 118° Southeast 517 595 35,000 -60 Level Houston Center
02:03PM 31.1611 -91.2733 119° Southeast 516 594 34,900  Descending Houston Center
02:05PM 31.0214 -90.9819 119° Southeast 515 593 35,000  Climbing Houston Center
02:06PM 30.9533 -90.8367 119° Southeast 512 589 34,900  Descending Houston Center
02:07PM 30.8847 -90.6919 119° Southeast 513 590 35,000  Climbing Houston Center
02:09PM 30.8147 -90.5478 119° Southeast 512 589 34,900  Descending Houston Center
02:10PM 30.7308 -90.3731 119° Southeast 514 592 35,000  Climbing Houston Center
02:11PM 30.6606 -90.2275 119° Southeast 518 596 35,000  Level Houston Center
02:12PM 30.5886 -90.0806 120° Southeast 521 600 35,000  Level Houston Center
02:13PM 30.5172 -89.9353 120° Southeast 519 597 35,000  Level Houston Center
02:14PM 30.4439 -89.7917 121° Southeast 519 597 35,000 -60 Level Houston Center
02:15PM 30.3644 -89.6386 121° Southeast 521 600 34,900  Descending Houston Center
02:16PM 30.2889 -89.4947 121° Southeast 518 596 35,000  Climbing Houston Center
02:17PM 30.2153 -89.3533 121° Southeast 515 593 35,000 -60 Level Houston Center
02:18PM 30.1264 -89.1842 121° Southeast 516 594 34,900 -60 Descending Houston Center
02:19PM 30.0539 -89.0456 121° Southeast 505 581 34,900  Level Houston Center
02:20PM 29.9811 -88.9067 121° Southeast 505 581 35,000  Climbing Houston Center
02:21PM 29.9083 -88.7678 121° Southeast 506 582 34,900 -60 Descending Houston Center
02:22PM 29.8353 -88.6297 121° Southeast 504 580 34,900  Level Houston Center
02:23PM 29.7625 -88.4917 121° Southeast 504 580 34,900  Level Houston Center
02:24PM 29.6817 -88.3411 122° Southeast 510 587 35,000  Climbing Houston Center
02:25PM 29.6089 -88.2031 121° Southeast 507 583 35,000  Level Houston Center
02:26PM 29.5214 -88.0381 121° Southeast 506 582 35,000  Level Houston Center
02:27PM 29.4458 -87.9025 123° Southeast 506 582 35,000  Level Houston Center
02:28PM 29.3697 -87.7706 123° Southeast 499 574 35,000 -60 Level Houston Center
02:29PM 29.2953 -87.6414 123° Southeast 500 575 34,900 -60 Descending Houston Center
02:30PM 29.2194 -87.5081 123° Southeast 501 577 34,900  Level Houston Center
02:31PM 29.1297 -87.3481 123° Southeast 499 574 34,900  Level Houston Center
02:32PM 29.1111 -87.3081 118° Southeast 497 572 34,900 60 Level Jacksonville Center
02:33PM 29.0703 -87.1589 107° East 503 579 35,000  Climbing Jacksonville Center
02:34PM 29.0272 -87.0028 107° East 503 579 35,000 -60 Level Jacksonville Center
02:35PM 28.9847 -86.8350 106° East 503 579 34,900 -60 Descending Jacksonville Center
02:36PM 28.9392 -86.6767 108° East 503 579 34,900  Level Jacksonville Center
02:37PM 28.8975 -86.5303 108° East 503 579 34,900 -300 Level Jacksonville Center
02:38PM 28.8561 -86.3772 107° East 503 579 34,400 -720 Descending Jacksonville Center
02:39PM 28.8142 -86.2264 108° East 503 579 33,500 -1,020 Descending Jacksonville Center
02:40PM 28.7656 -86.0803 111° Southeast 496 571 32,400 -1,080 Descending Jacksonville Center
02:41PM 28.7042 -85.9436 117° Southeast 491 565 31,400 -780 Descending Jacksonville Center
02:42PM 28.6467 -85.8117 116° Southeast 480 552 30,900 -300 Descending Jacksonville Center
02:43PM 28.5875 -85.6658 115° Southeast 480 552 30,900  Level Jacksonville Center
02:44PM 28.5236 -85.5222 117° Southeast 494 568 31,000  Climbing Jacksonville Center
02:45PM 28.4683 -85.3744 113° Southeast 499 574 30,900 -60 Descending Jacksonville Center
02:46PM 28.4125 -85.2267 113° Southeast 499 574 30,900  Level Jacksonville Center
02:48PM 28.3094 -84.9581 113° Southeast 507 583 30,900  Level Miami Center
02:49PM 28.2550 -84.8153 113° Southeast 505 581 30,900  Level Miami Center
02:50PM 28.1964 -84.6700 115° Southeast 505 581 30,900 -60 Level Miami Center
02:51PM 28.1569 -84.5142 106° East 505 581 30,800 -900 Descending Miami Center
02:52PM 28.1222 -84.3428 103° East 505 581 29,100 -1,680 Descending Miami Center
02:53PM 28.0986 -84.1931 100° East 497 572 27,500 -1,560 Descending Miami Center
02:54PM 28.0744 -84.0528 101° East 473 544 26,000 -2,100 Descending Miami Center
02:55PM 28.0478 -83.9194 103° East 448 516 23,400 -2,400 Descending Miami Center
02:56PM 28.0253 -83.7794 100° East 448 516 21,300 -1,800 Descending Miami Center
02:57PM 27.9983 -83.6486 103° East 437 503 19,900 -1,800 Descending Miami Center
02:58PM 27.9769 -83.5253 101° East 420 483 17,700 -2,520 Descending Miami Center
02:59PM 27.9578 -83.3972 100° East 414 476 14,900 -3,000 Descending Miami Center
03:00PM 27.9342 -83.2761 102° East 408 470 11,800 -2,400 Descending Miami Center
03:01PM 27.9158 -83.1672 101° East 378 435 10,100 -1,560 Descending Miami Center
03:02PM 27.9467 -83.0819 68° East 303 349 8,700 -1,440 Descending Miami Center
03:03PM 27.9836 -82.9994 63° Northeast 297 342 7,300 -900 Descending Miami Center
03:04PM 28.0206 -82.9169 63° Northeast 292 336 6,900 -180 Descending Miami Center
03:04PM 28.0500 -82.8500 63° Northeast 290 334 7,000 -360 Climbing Tampa TRACON
03:05PM 28.0500 -82.7667 90° East 283 326 6,300 -1,080 Descending Tampa TRACON
03:06PM 28.0167 -82.6833 114° Southeast 272 313 5,000 -660 Descending Tampa TRACON
03:07PM 28.0000 -82.6167 106° East 238 274 5,000 -540 Level Tampa TRACON
03:08PM 27.9333 -82.6167 180° South 230 265 4,000 -1,680 Descending Tampa TRACON
03:09PM 27.9000 -82.5833 139° Southeast 202 232 1,700 -2,340 Descending Tampa TRACON